sensor_id;sensor_type;location;lat;lon;timestamp;P1;durP1;ratioP1;P2;durP2;ratioP2
5937;SDS011;2994;51.220;4.412;2023-03-01T00:01:22;10.10;;;9.07;;
5937;SDS011;2994;51.220;4.412;2023-03-01T00:03:50;7.80;;;7.10;;
5937;SDS011;2994;51.220;4.412;2023-03-01T00:06:17;10.80;;;8.83;;
5937;SDS011;2994;51.220;4.412;2023-03-01T00:08:42;10.30;;;9.30;;
5937;SDS011;2994;51.220;4.412;2023-03-01T00:13:38;11.40;;;10.17;;
5937;SDS011;2994;51.220;4.412;2023-03-01T00:16:04;10.03;;;8.30;;
5937;SDS011;2994;51.220;4.412;2023-03-01T00:18:31;11.00;;;9.37;;
5937;SDS011;2994;51.220;4.412;2023-03-01T00:20:57;11.53;;;10.33;;
5937;SDS011;2994;51.220;4.412;2023-03-01T00:23:22;9.17;;;8.33;;
5937;SDS011;2994;51.220;4.412;2023-03-01T00:25:49;12.07;;;9.67;;
5937;SDS011;2994;51.220;4.412;2023-03-01T00:28:15;10.27;;;9.20;;
5937;SDS011;2994;51.220;4.412;2023-03-01T00:30:41;9.57;;;8.57;;
5937;SDS011;2994;51.220;4.412;2023-03-01T00:33:06;8.37;;;7.60;;
5937;SDS011;2994;51.220;4.412;2023-03-01T00:35:32;9.20;;;7.67;;
5937;SDS011;2994;51.220;4.412;2023-03-01T00:37:58;9.57;;;8.20;;
5937;SDS011;2994;51.220;4.412;2023-03-01T00:40:24;9.43;;;8.43;;
5937;SDS011;2994;51.220;4.412;2023-03-01T00:42:50;8.57;;;7.07;;
5937;SDS011;2994;51.220;4.412;2023-03-01T00:45:16;9.13;;;8.17;;
5937;SDS011;2994;51.220;4.412;2023-03-01T00:47:41;11.60;;;8.13;;
5937;SDS011;2994;51.220;4.412;2023-03-01T00:50:08;11.13;;;8.57;;
5937;SDS011;2994;51.220;4.412;2023-03-01T00:52:34;9.97;;;8.97;;
5937;SDS011;2994;51.220;4.412;2023-03-01T00:54:59;11.70;;;8.53;;
5937;SDS011;2994;51.220;4.412;2023-03-01T00:57:25;9.20;;;8.17;;
5937;SDS011;2994;51.220;4.412;2023-03-01T00:59:50;10.17;;;7.73;;
5937;SDS011;2994;51.220;4.412;2023-03-01T01:02:17;9.50;;;8.53;;
5937;SDS011;2994;51.220;4.412;2023-03-01T01:04:46;11.73;;;8.47;;
5937;SDS011;2994;51.220;4.412;2023-03-01T01:07:11;9.63;;;8.73;;
5937;SDS011;2994;51.220;4.412;2023-03-01T01:09:37;9.93;;;8.50;;
5937;SDS011;2994;51.220;4.412;2023-03-01T01:12:03;9.20;;;8.30;;
5937;SDS011;2994;51.220;4.412;2023-03-01T01:14:29;9.03;;;8.13;;
5937;SDS011;2994;51.220;4.412;2023-03-01T01:16:54;9.37;;;8.10;;
5937;SDS011;2994;51.220;4.412;2023-03-01T01:19:20;11.23;;;8.63;;
5937;SDS011;2994;51.220;4.412;2023-03-01T01:21:46;9.10;;;8.20;;
5937;SDS011;2994;51.220;4.412;2023-03-01T01:24:13;11.50;;;8.80;;
5937;SDS011;2994;51.220;4.412;2023-03-01T01:26:38;9.13;;;8.07;;
5937;SDS011;2994;51.220;4.412;2023-03-01T01:29:04;8.93;;;8.03;;
5937;SDS011;2994;51.220;4.412;2023-03-01T01:31:31;8.97;;;8.07;;
5937;SDS011;2994;51.220;4.412;2023-03-01T01:33:58;10.20;;;7.93;;
5937;SDS011;2994;51.220;4.412;2023-03-01T01:36:25;8.43;;;7.30;;
5937;SDS011;2994;51.220;4.412;2023-03-01T01:38:51;9.07;;;7.30;;
5937;SDS011;2994;51.220;4.412;2023-03-01T01:41:16;10.57;;;8.40;;
5937;SDS011;2994;51.220;4.412;2023-03-01T01:43:43;9.13;;;7.60;;
5937;SDS011;2994;51.220;4.412;2023-03-01T01:49:00;8.50;;;7.70;;
5937;SDS011;2994;51.220;4.412;2023-03-01T01:51:29;8.50;;;7.70;;
5937;SDS011;2994;51.220;4.412;2023-03-01T01:54:03;9.47;;;8.53;;
5937;SDS011;2994;51.220;4.412;2023-03-01T01:56:34;11.83;;;7.97;;
5937;SDS011;2994;51.220;4.412;2023-03-01T01:59:01;8.47;;;7.30;;
5937;SDS011;2994;51.220;4.412;2023-03-01T02:01:27;8.63;;;7.60;;
5937;SDS011;2994;51.220;4.412;2023-03-01T02:03:53;9.07;;;8.27;;
5937;SDS011;2994;51.220;4.412;2023-03-01T02:08:44;8.77;;;7.20;;
5937;SDS011;2994;51.220;4.412;2023-03-01T02:11:12;8.20;;;7.40;;
5937;SDS011;2994;51.220;4.412;2023-03-01T02:13:39;9.07;;;7.90;;
5937;SDS011;2994;51.220;4.412;2023-03-01T02:16:11;9.33;;;7.40;;
5937;SDS011;2994;51.220;4.412;2023-03-01T02:18:39;8.50;;;7.37;;
5937;SDS011;2994;51.220;4.412;2023-03-01T02:27:08;9.33;;;8.13;;
5937;SDS011;2994;51.220;4.412;2023-03-01T02:29:34;10.57;;;7.83;;
5937;SDS011;2994;51.220;4.412;2023-03-01T02:32:00;8.37;;;7.57;;
5937;SDS011;2994;51.220;4.412;2023-03-01T02:34:28;9.33;;;7.50;;
5937;SDS011;2994;51.220;4.412;2023-03-01T02:37:01;8.23;;;7.43;;
5937;SDS011;2994;51.220;4.412;2023-03-01T02:39:48;9.07;;;8.10;;
5937;SDS011;2994;51.220;4.412;2023-03-01T02:42:31;9.07;;;8.00;;
5937;SDS011;2994;51.220;4.412;2023-03-01T02:45:00;9.80;;;8.80;;
5937;SDS011;2994;51.220;4.412;2023-03-01T02:47:26;8.47;;;7.57;;
5937;SDS011;2994;51.220;4.412;2023-03-01T02:49:51;9.07;;;8.17;;
5937;SDS011;2994;51.220;4.412;2023-03-01T02:55:13;10.10;;;8.73;;
5937;SDS011;2994;51.220;4.412;2023-03-01T02:57:42;9.00;;;8.13;;
5937;SDS011;2994;51.220;4.412;2023-03-01T03:00:09;10.40;;;8.80;;
5937;SDS011;2994;51.220;4.412;2023-03-01T03:02:44;7.97;;;7.27;;
5937;SDS011;2994;51.220;4.412;2023-03-01T03:05:14;8.10;;;7.20;;
5937;SDS011;2994;51.220;4.412;2023-03-01T03:07:43;8.83;;;7.93;;
5937;SDS011;2994;51.220;4.412;2023-03-01T03:10:12;10.53;;;8.60;;
5937;SDS011;2994;51.220;4.412;2023-03-01T03:12:50;8.50;;;7.70;;
5937;SDS011;2994;51.220;4.412;2023-03-01T03:15:20;9.80;;;8.80;;
5937;SDS011;2994;51.220;4.412;2023-03-01T03:17:46;9.20;;;7.73;;
5937;SDS011;2994;51.220;4.412;2023-03-01T03:20:12;9.90;;;8.10;;
5937;SDS011;2994;51.220;4.412;2023-03-01T03:22:44;9.67;;;8.70;;
5937;SDS011;2994;51.220;4.412;2023-03-01T03:25:10;9.63;;;8.63;;
5937;SDS011;2994;51.220;4.412;2023-03-01T03:27:36;11.30;;;9.10;;
5937;SDS011;2994;51.220;4.412;2023-03-01T03:30:03;8.80;;;7.90;;
5937;SDS011;2994;51.220;4.412;2023-03-01T03:32:34;9.07;;;7.80;;
5937;SDS011;2994;51.220;4.412;2023-03-01T03:35:07;8.60;;;7.37;;
5937;SDS011;2994;51.220;4.412;2023-03-01T03:37:41;8.47;;;7.60;;
5937;SDS011;2994;51.220;4.412;2023-03-01T03:40:25;9.10;;;8.20;;
5937;SDS011;2994;51.220;4.412;2023-03-01T03:42:51;11.77;;;8.10;;
5937;SDS011;2994;51.220;4.412;2023-03-01T03:45:17;9.50;;;8.17;;
5937;SDS011;2994;51.220;4.412;2023-03-01T03:47:43;12.13;;;8.57;;
5937;SDS011;2994;51.220;4.412;2023-03-01T03:50:09;8.50;;;7.70;;
5937;SDS011;2994;51.220;4.412;2023-03-01T03:52:36;8.60;;;7.80;;
5937;SDS011;2994;51.220;4.412;2023-03-01T03:55:02;8.53;;;7.63;;
5937;SDS011;2994;51.220;4.412;2023-03-01T03:57:28;9.53;;;8.33;;
5937;SDS011;2994;51.220;4.412;2023-03-01T03:59:53;8.97;;;8.17;;
5937;SDS011;2994;51.220;4.412;2023-03-01T04:02:19;10.57;;;7.73;;
5937;SDS011;2994;51.220;4.412;2023-03-01T04:04:47;9.63;;;7.60;;
5937;SDS011;2994;51.220;4.412;2023-03-01T04:07:15;10.70;;;7.67;;
5937;SDS011;2994;51.220;4.412;2023-03-01T04:09:41;8.80;;;7.93;;
5937;SDS011;2994;51.220;4.412;2023-03-01T04:12:07;9.23;;;8.30;;
5937;SDS011;2994;51.220;4.412;2023-03-01T04:14:33;9.10;;;8.13;;
5937;SDS011;2994;51.220;4.412;2023-03-01T04:16:59;8.00;;;7.20;;
5937;SDS011;2994;51.220;4.412;2023-03-01T04:19:24;10.20;;;8.20;;
5937;SDS011;2994;51.220;4.412;2023-03-01T04:21:51;9.53;;;7.90;;
5937;SDS011;2994;51.220;4.412;2023-03-01T04:24:17;9.47;;;8.13;;
5937;SDS011;2994;51.220;4.412;2023-03-01T04:26:43;8.20;;;7.40;;
5937;SDS011;2994;51.220;4.412;2023-03-01T04:29:08;10.30;;;7.93;;
5937;SDS011;2994;51.220;4.412;2023-03-01T04:31:34;10.53;;;7.70;;
5937;SDS011;2994;51.220;4.412;2023-03-01T04:33:59;10.93;;;8.60;;
5937;SDS011;2994;51.220;4.412;2023-03-01T04:36:25;9.90;;;7.53;;
5937;SDS011;2994;51.220;4.412;2023-03-01T04:38:52;10.70;;;9.17;;
5937;SDS011;2994;51.220;4.412;2023-03-01T04:41:19;11.07;;;9.20;;
5937;SDS011;2994;51.220;4.412;2023-03-01T04:43:46;9.10;;;8.10;;
5937;SDS011;2994;51.220;4.412;2023-03-01T04:46:12;8.87;;;7.80;;
5937;SDS011;2994;51.220;4.412;2023-03-01T04:48:40;8.73;;;7.87;;
5937;SDS011;2994;51.220;4.412;2023-03-01T04:51:06;9.90;;;8.00;;
5937;SDS011;2994;51.220;4.412;2023-03-01T04:53:33;9.53;;;8.20;;
5937;SDS011;2994;51.220;4.412;2023-03-01T04:56:01;8.87;;;7.97;;
5937;SDS011;2994;51.220;4.412;2023-03-01T04:58:27;9.50;;;7.50;;
5937;SDS011;2994;51.220;4.412;2023-03-01T05:00:52;9.33;;;8.43;;
5937;SDS011;2994;51.220;4.412;2023-03-01T05:03:19;11.93;;;9.50;;
5937;SDS011;2994;51.220;4.412;2023-03-01T05:05:45;9.77;;;8.73;;
5937;SDS011;2994;51.220;4.412;2023-03-01T05:08:13;9.87;;;8.57;;
5937;SDS011;2994;51.220;4.412;2023-03-01T05:10:49;10.13;;;8.03;;
5937;SDS011;2994;51.220;4.412;2023-03-01T05:13:17;10.37;;;8.17;;
5937;SDS011;2994;51.220;4.412;2023-03-01T05:15:48;9.07;;;8.10;;
5937;SDS011;2994;51.220;4.412;2023-03-01T05:18:18;9.80;;;8.23;;
5937;SDS011;2994;51.220;4.412;2023-03-01T05:20:44;11.90;;;9.23;;
5937;SDS011;2994;51.220;4.412;2023-03-01T05:23:09;9.13;;;8.20;;
5937;SDS011;2994;51.220;4.412;2023-03-01T05:25:35;11.47;;;8.03;;
5937;SDS011;2994;51.220;4.412;2023-03-01T05:28:05;10.93;;;8.23;;
5937;SDS011;2994;51.220;4.412;2023-03-01T05:30:32;9.33;;;8.43;;
5937;SDS011;2994;51.220;4.412;2023-03-01T05:32:59;9.13;;;8.33;;
5937;SDS011;2994;51.220;4.412;2023-03-01T05:35:25;8.80;;;8.00;;
5937;SDS011;2994;51.220;4.412;2023-03-01T05:37:51;10.53;;;7.97;;
5937;SDS011;2994;51.220;4.412;2023-03-01T05:40:18;9.17;;;7.77;;
5937;SDS011;2994;51.220;4.412;2023-03-01T05:42:46;10.70;;;8.03;;
5937;SDS011;2994;51.220;4.412;2023-03-01T05:45:15;9.97;;;8.07;;
5937;SDS011;2994;51.220;4.412;2023-03-01T05:47:42;11.13;;;8.73;;
5937;SDS011;2994;51.220;4.412;2023-03-01T05:50:13;9.50;;;8.50;;
5937;SDS011;2994;51.220;4.412;2023-03-01T05:52:44;8.20;;;7.40;;
5937;SDS011;2994;51.220;4.412;2023-03-01T05:55:14;11.20;;;9.23;;
5937;SDS011;2994;51.220;4.412;2023-03-01T05:57:44;14.00;;;9.50;;
5937;SDS011;2994;51.220;4.412;2023-03-01T06:00:10;9.80;;;8.13;;
5937;SDS011;2994;51.220;4.412;2023-03-01T06:02:37;11.50;;;8.20;;
5937;SDS011;2994;51.220;4.412;2023-03-01T06:05:03;8.40;;;7.20;;
5937;SDS011;2994;51.220;4.412;2023-03-01T06:07:30;10.13;;;7.83;;
5937;SDS011;2994;51.220;4.412;2023-03-01T06:09:56;9.40;;;7.90;;
5937;SDS011;2994;51.220;4.412;2023-03-01T06:12:22;9.63;;;8.27;;
5937;SDS011;2994;51.220;4.412;2023-03-01T06:14:47;11.40;;;8.27;;
5937;SDS011;2994;51.220;4.412;2023-03-01T06:17:13;9.67;;;7.63;;
5937;SDS011;2994;51.220;4.412;2023-03-01T06:19:38;8.40;;;7.60;;
5937;SDS011;2994;51.220;4.412;2023-03-01T06:22:04;8.90;;;8.00;;
5937;SDS011;2994;51.220;4.412;2023-03-01T06:24:29;9.13;;;7.77;;
5937;SDS011;2994;51.220;4.412;2023-03-01T06:26:55;10.30;;;8.20;;
5937;SDS011;2994;51.220;4.412;2023-03-01T06:29:20;12.90;;;8.20;;
5937;SDS011;2994;51.220;4.412;2023-03-01T06:31:47;12.83;;;9.00;;
5937;SDS011;2994;51.220;4.412;2023-03-01T06:34:13;11.33;;;8.90;;
5937;SDS011;2994;51.220;4.412;2023-03-01T06:36:39;10.37;;;7.87;;
5937;SDS011;2994;51.220;4.412;2023-03-01T06:39:04;12.33;;;8.27;;
5937;SDS011;2994;51.220;4.412;2023-03-01T06:41:30;10.67;;;7.70;;
5937;SDS011;2994;51.220;4.412;2023-03-01T06:43:57;10.30;;;7.73;;
5937;SDS011;2994;51.220;4.412;2023-03-01T06:46:23;10.77;;;8.20;;
5937;SDS011;2994;51.220;4.412;2023-03-01T06:48:49;9.20;;;8.30;;
5937;SDS011;2994;51.220;4.412;2023-03-01T06:51:14;10.40;;;8.47;;
5937;SDS011;2994;51.220;4.412;2023-03-01T06:53:40;8.03;;;7.23;;
5937;SDS011;2994;51.220;4.412;2023-03-01T06:56:05;10.80;;;7.80;;
5937;SDS011;2994;51.220;4.412;2023-03-01T06:58:32;11.40;;;9.27;;
5937;SDS011;2994;51.220;4.412;2023-03-01T07:00:58;13.10;;;9.10;;
5937;SDS011;2994;51.220;4.412;2023-03-01T07:03:24;8.67;;;7.80;;
5937;SDS011;2994;51.220;4.412;2023-03-01T07:05:49;9.17;;;8.27;;
5937;SDS011;2994;51.220;4.412;2023-03-01T07:08:17;10.80;;;8.50;;
5937;SDS011;2994;51.220;4.412;2023-03-01T07:10:43;15.43;;;8.47;;
5937;SDS011;2994;51.220;4.412;2023-03-01T07:13:08;10.00;;;7.60;;
5937;SDS011;2994;51.220;4.412;2023-03-01T07:15:33;11.00;;;8.93;;
5937;SDS011;2994;51.220;4.412;2023-03-01T07:17:59;11.57;;;8.30;;
5937;SDS011;2994;51.220;4.412;2023-03-01T07:20:24;10.93;;;8.23;;
5937;SDS011;2994;51.220;4.412;2023-03-01T07:22:53;10.90;;;8.27;;
5937;SDS011;2994;51.220;4.412;2023-03-01T07:25:20;10.37;;;7.50;;
5937;SDS011;2994;51.220;4.412;2023-03-01T07:27:49;9.87;;;8.47;;
5937;SDS011;2994;51.220;4.412;2023-03-01T07:30:16;10.67;;;8.30;;
5937;SDS011;2994;51.220;4.412;2023-03-01T07:32:42;12.37;;;8.90;;
5937;SDS011;2994;51.220;4.412;2023-03-01T07:35:07;11.30;;;9.27;;
5937;SDS011;2994;51.220;4.412;2023-03-01T07:37:33;9.60;;;8.17;;
5937;SDS011;2994;51.220;4.412;2023-03-01T07:39:58;10.90;;;8.40;;
5937;SDS011;2994;51.220;4.412;2023-03-01T07:42:24;13.10;;;8.70;;
5937;SDS011;2994;51.220;4.412;2023-03-01T07:44:49;9.30;;;8.40;;
5937;SDS011;2994;51.220;4.412;2023-03-01T07:47:15;12.20;;;7.70;;
5937;SDS011;2994;51.220;4.412;2023-03-01T07:49:40;13.00;;;8.53;;
5937;SDS011;2994;51.220;4.412;2023-03-01T07:52:06;10.23;;;8.20;;
5937;SDS011;2994;51.220;4.412;2023-03-01T07:54:31;11.90;;;7.90;;
5937;SDS011;2994;51.220;4.412;2023-03-01T07:56:57;12.63;;;8.93;;
5937;SDS011;2994;51.220;4.412;2023-03-01T07:59:23;12.80;;;8.60;;
5937;SDS011;2994;51.220;4.412;2023-03-01T08:01:53;8.73;;;7.57;;
5937;SDS011;2994;51.220;4.412;2023-03-01T08:04:20;9.83;;;8.60;;
5937;SDS011;2994;51.220;4.412;2023-03-01T08:06:45;8.73;;;7.47;;
5937;SDS011;2994;51.220;4.412;2023-03-01T08:09:10;11.07;;;8.60;;
5937;SDS011;2994;51.220;4.412;2023-03-01T08:11:36;10.17;;;7.80;;
5937;SDS011;2994;51.220;4.412;2023-03-01T08:14:02;11.37;;;7.57;;
5937;SDS011;2994;51.220;4.412;2023-03-01T08:16:27;11.47;;;8.00;;
5937;SDS011;2994;51.220;4.412;2023-03-01T08:18:53;9.67;;;7.17;;
5937;SDS011;2994;51.220;4.412;2023-03-01T08:21:21;9.87;;;8.20;;
5937;SDS011;2994;51.220;4.412;2023-03-01T08:23:47;9.67;;;7.43;;
5937;SDS011;2994;51.220;4.412;2023-03-01T08:26:13;8.77;;;7.97;;
5937;SDS011;2994;51.220;4.412;2023-03-01T08:28:42;9.47;;;8.23;;
5937;SDS011;2994;51.220;4.412;2023-03-01T08:31:14;11.77;;;8.80;;
5937;SDS011;2994;51.220;4.412;2023-03-01T08:33:49;12.00;;;8.30;;
5937;SDS011;2994;51.220;4.412;2023-03-01T08:36:20;8.80;;;7.87;;
5937;SDS011;2994;51.220;4.412;2023-03-01T08:38:47;10.10;;;8.40;;
5937;SDS011;2994;51.220;4.412;2023-03-01T08:41:13;10.53;;;8.00;;
5937;SDS011;2994;51.220;4.412;2023-03-01T08:43:38;12.07;;;8.50;;
5937;SDS011;2994;51.220;4.412;2023-03-01T08:46:03;9.80;;;8.60;;
5937;SDS011;2994;51.220;4.412;2023-03-01T08:48:29;13.80;;;8.13;;
5937;SDS011;2994;51.220;4.412;2023-03-01T08:50:55;9.73;;;8.30;;
5937;SDS011;2994;51.220;4.412;2023-03-01T08:53:21;8.30;;;7.07;;
5937;SDS011;2994;51.220;4.412;2023-03-01T08:55:46;9.10;;;8.07;;
5937;SDS011;2994;51.220;4.412;2023-03-01T08:58:12;13.10;;;9.37;;
5937;SDS011;2994;51.220;4.412;2023-03-01T09:00:37;11.23;;;7.67;;
5937;SDS011;2994;51.220;4.412;2023-03-01T09:03:03;9.03;;;7.20;;
5937;SDS011;2994;51.220;4.412;2023-03-01T09:05:31;11.27;;;7.63;;
5937;SDS011;2994;51.220;4.412;2023-03-01T09:07:57;8.97;;;7.50;;
5937;SDS011;2994;51.220;4.412;2023-03-01T09:10:23;12.63;;;8.93;;
5937;SDS011;2994;51.220;4.412;2023-03-01T09:12:48;9.40;;;7.80;;
5937;SDS011;2994;51.220;4.412;2023-03-01T09:15:13;12.50;;;8.50;;
5937;SDS011;2994;51.220;4.412;2023-03-01T09:17:39;10.23;;;8.20;;
5937;SDS011;2994;51.220;4.412;2023-03-01T09:20:04;8.57;;;7.67;;
5937;SDS011;2994;51.220;4.412;2023-03-01T09:22:32;11.17;;;8.70;;
5937;SDS011;2994;51.220;4.412;2023-03-01T09:24:59;9.37;;;7.00;;
5937;SDS011;2994;51.220;4.412;2023-03-01T09:27:24;11.47;;;8.43;;
5937;SDS011;2994;51.220;4.412;2023-03-01T09:29:50;10.00;;;6.70;;
5937;SDS011;2994;51.220;4.412;2023-03-01T09:32:15;9.07;;;7.10;;
5937;SDS011;2994;51.220;4.412;2023-03-01T09:34:41;8.40;;;7.20;;
5937;SDS011;2994;51.220;4.412;2023-03-01T09:37:25;9.47;;;7.50;;
5937;SDS011;2994;51.220;4.412;2023-03-01T09:39:51;10.70;;;7.50;;
5937;SDS011;2994;51.220;4.412;2023-03-01T09:42:17;8.40;;;7.47;;
5937;SDS011;2994;51.220;4.412;2023-03-01T09:44:47;10.80;;;7.60;;
5937;SDS011;2994;51.220;4.412;2023-03-01T09:52:41;8.73;;;6.20;;
5937;SDS011;2994;51.220;4.412;2023-03-01T09:55:12;10.90;;;8.10;;
5937;SDS011;2994;51.220;4.412;2023-03-01T09:57:50;8.90;;;7.03;;
5937;SDS011;2994;51.220;4.412;2023-03-01T10:00:26;13.53;;;8.40;;
5937;SDS011;2994;51.220;4.412;2023-03-01T10:06:14;9.70;;;7.40;;
5937;SDS011;2994;51.220;4.412;2023-03-01T10:11:22;11.23;;;8.07;;
5937;SDS011;2994;51.220;4.412;2023-03-01T10:14:37;9.33;;;7.27;;
5937;SDS011;2994;51.220;4.412;2023-03-01T10:16:59;7.00;;;6.20;;
5937;SDS011;2994;51.220;4.412;2023-03-01T10:19:42;11.40;;;7.60;;
5937;SDS011;2994;51.220;4.412;2023-03-01T10:22:16;9.33;;;7.07;;
5937;SDS011;2994;51.220;4.412;2023-03-01T10:24:48;9.90;;;7.20;;
5937;SDS011;2994;51.220;4.412;2023-03-01T10:28:02;7.63;;;6.83;;
5937;SDS011;2994;51.220;4.412;2023-03-01T10:30:17;7.60;;;6.90;;
5937;SDS011;2994;51.220;4.412;2023-03-01T10:32:46;8.47;;;6.57;;
5937;SDS011;2994;51.220;4.412;2023-03-01T10:35:15;9.87;;;7.27;;
5937;SDS011;2994;51.220;4.412;2023-03-01T10:37:56;11.17;;;7.07;;
5937;SDS011;2994;51.220;4.412;2023-03-01T10:40:33;8.83;;;7.93;;
5937;SDS011;2994;51.220;4.412;2023-03-01T10:43:04;8.80;;;7.17;;
5937;SDS011;2994;51.220;4.412;2023-03-01T10:45:37;8.20;;;7.40;;
5937;SDS011;2994;51.220;4.412;2023-03-01T10:50:45;9.53;;;6.93;;
5937;SDS011;2994;51.220;4.412;2023-03-01T10:53:29;11.43;;;7.30;;
5937;SDS011;2994;51.220;4.412;2023-03-01T10:55:59;7.90;;;7.00;;
5937;SDS011;2994;51.220;4.412;2023-03-01T10:58:28;10.23;;;7.40;;
5937;SDS011;2994;51.220;4.412;2023-03-01T11:03:37;7.57;;;6.33;;
5937;SDS011;2994;51.220;4.412;2023-03-01T11:06:05;7.63;;;6.00;;
5937;SDS011;2994;51.220;4.412;2023-03-01T11:11:10;8.70;;;6.87;;
5937;SDS011;2994;51.220;4.412;2023-03-01T11:16:47;7.80;;;6.93;;
5937;SDS011;2994;51.220;4.412;2023-03-01T11:19:22;9.70;;;6.87;;
5937;SDS011;2994;51.220;4.412;2023-03-01T11:22:04;8.80;;;7.07;;
5937;SDS011;2994;51.220;4.412;2023-03-01T11:24:39;7.70;;;6.17;;
5937;SDS011;2994;51.220;4.412;2023-03-01T11:27:12;10.90;;;6.60;;
5937;SDS011;2994;51.220;4.412;2023-03-01T11:30:05;10.50;;;6.80;;
5937;SDS011;2994;51.220;4.412;2023-03-01T11:32:46;8.83;;;6.60;;
5937;SDS011;2994;51.220;4.412;2023-03-01T11:35:32;10.93;;;6.87;;
5937;SDS011;2994;51.220;4.412;2023-03-01T11:38:26;9.27;;;7.57;;
5937;SDS011;2994;51.220;4.412;2023-03-01T11:40:57;8.73;;;6.50;;
5937;SDS011;2994;51.220;4.412;2023-03-01T11:43:36;8.40;;;6.80;;
5937;SDS011;2994;51.220;4.412;2023-03-01T11:46:25;7.73;;;6.53;;
5937;SDS011;2994;51.220;4.412;2023-03-01T11:52:06;8.80;;;6.73;;
5937;SDS011;2994;51.220;4.412;2023-03-01T12:09:24;9.03;;;6.60;;
5937;SDS011;2994;51.220;4.412;2023-03-01T12:15:01;7.00;;;5.60;;
5937;SDS011;2994;51.220;4.412;2023-03-01T12:26:18;8.07;;;5.30;;
5937;SDS011;2994;51.220;4.412;2023-03-01T12:40:31;6.53;;;5.90;;
5937;SDS011;2994;51.220;4.412;2023-03-01T12:43:16;5.97;;;5.37;;
5937;SDS011;2994;51.220;4.412;2023-03-01T12:48:58;6.73;;;6.07;;
5937;SDS011;2994;51.220;4.412;2023-03-01T12:51:33;7.17;;;6.10;;
5937;SDS011;2994;51.220;4.412;2023-03-01T12:54:02;8.60;;;6.20;;
5937;SDS011;2994;51.220;4.412;2023-03-01T12:56:35;7.67;;;6.30;;
5937;SDS011;2994;51.220;4.412;2023-03-01T13:04:27;7.30;;;6.17;;
5937;SDS011;2994;51.220;4.412;2023-03-01T13:10:12;6.77;;;6.10;;
5937;SDS011;2994;51.220;4.412;2023-03-01T13:12:53;8.50;;;6.70;;
5937;SDS011;2994;51.220;4.412;2023-03-01T13:15:29;8.90;;;6.90;;
5937;SDS011;2994;51.220;4.412;2023-03-01T13:17:57;8.40;;;6.33;;
5937;SDS011;2994;51.220;4.412;2023-03-01T13:20:29;7.63;;;5.63;;
5937;SDS011;2994;51.220;4.412;2023-03-01T13:23:05;8.67;;;6.37;;
5937;SDS011;2994;51.220;4.412;2023-03-01T13:25:32;8.07;;;6.23;;
5937;SDS011;2994;51.220;4.412;2023-03-01T13:31:01;8.20;;;6.87;;
5937;SDS011;2994;51.220;4.412;2023-03-01T13:35:59;8.10;;;5.83;;
5937;SDS011;2994;51.220;4.412;2023-03-01T13:44:24;9.07;;;6.93;;
5937;SDS011;2994;51.220;4.412;2023-03-01T13:49:36;6.53;;;5.93;;
5937;SDS011;2994;51.220;4.412;2023-03-01T13:52:06;10.03;;;6.90;;
5937;SDS011;2994;51.220;4.412;2023-03-01T13:54:48;6.47;;;5.77;;
5937;SDS011;2994;51.220;4.412;2023-03-01T13:57:18;9.30;;;6.20;;
5937;SDS011;2994;51.220;4.412;2023-03-01T13:59:49;11.10;;;6.23;;
5937;SDS011;2994;51.220;4.412;2023-03-01T14:02:15;9.50;;;6.87;;
5937;SDS011;2994;51.220;4.412;2023-03-01T14:04:44;8.53;;;6.80;;
5937;SDS011;2994;51.220;4.412;2023-03-01T14:07:22;7.53;;;6.83;;
5937;SDS011;2994;51.220;4.412;2023-03-01T14:09:55;6.83;;;5.63;;
5937;SDS011;2994;51.220;4.412;2023-03-01T14:15:19;7.90;;;6.17;;
5937;SDS011;2994;51.220;4.412;2023-03-01T14:20:38;9.13;;;6.77;;
5937;SDS011;2994;51.220;4.412;2023-03-01T14:23:11;9.70;;;6.00;;
5937;SDS011;2994;51.220;4.412;2023-03-01T14:26:01;6.63;;;5.90;;
5937;SDS011;2994;51.220;4.412;2023-03-01T14:30:58;7.90;;;5.83;;
5937;SDS011;2994;51.220;4.412;2023-03-01T14:35:52;7.70;;;6.10;;
5937;SDS011;2994;51.220;4.412;2023-03-01T14:38:28;8.13;;;6.13;;
5937;SDS011;2994;51.220;4.412;2023-03-01T14:40:59;6.63;;;5.90;;
5937;SDS011;2994;51.220;4.412;2023-03-01T14:43:27;9.60;;;6.37;;
5937;SDS011;2994;51.220;4.412;2023-03-01T14:45:55;9.47;;;6.20;;
5937;SDS011;2994;51.220;4.412;2023-03-01T14:48:21;6.23;;;5.57;;
5937;SDS011;2994;51.220;4.412;2023-03-01T14:50:47;7.87;;;6.90;;
5937;SDS011;2994;51.220;4.412;2023-03-01T14:53:20;8.03;;;6.10;;
5937;SDS011;2994;51.220;4.412;2023-03-01T14:55:50;9.27;;;6.50;;
5937;SDS011;2994;51.220;4.412;2023-03-01T14:58:19;8.27;;;6.60;;
5937;SDS011;2994;51.220;4.412;2023-03-01T15:00:57;6.93;;;5.80;;
5937;SDS011;2994;51.220;4.412;2023-03-01T15:03:33;6.20;;;5.60;;
5937;SDS011;2994;51.220;4.412;2023-03-01T15:06:02;8.00;;;5.30;;
5937;SDS011;2994;51.220;4.412;2023-03-01T15:08:28;8.80;;;6.10;;
5937;SDS011;2994;51.220;4.412;2023-03-01T15:13:30;7.73;;;6.93;;
5937;SDS011;2994;51.220;4.412;2023-03-01T15:16:05;11.83;;;7.43;;
5937;SDS011;2994;51.220;4.412;2023-03-01T15:18:33;7.60;;;6.20;;
5937;SDS011;2994;51.220;4.412;2023-03-01T15:21:15;7.00;;;5.90;;
5937;SDS011;2994;51.220;4.412;2023-03-01T15:23:47;9.87;;;6.20;;
5937;SDS011;2994;51.220;4.412;2023-03-01T15:26:49;10.63;;;6.20;;
5937;SDS011;2994;51.220;4.412;2023-03-01T15:29:11;10.63;;;6.73;;
5937;SDS011;2994;51.220;4.412;2023-03-01T15:31:43;8.60;;;5.87;;
5937;SDS011;2994;51.220;4.412;2023-03-01T15:34:27;6.23;;;5.63;;
5937;SDS011;2994;51.220;4.412;2023-03-01T15:36:56;9.20;;;7.30;;
5937;SDS011;2994;51.220;4.412;2023-03-01T15:42:02;8.37;;;6.53;;
5937;SDS011;2994;51.220;4.412;2023-03-01T15:44:36;11.07;;;6.50;;
5937;SDS011;2994;51.220;4.412;2023-03-01T15:47:06;7.43;;;6.70;;
5937;SDS011;2994;51.220;4.412;2023-03-01T15:49:50;6.70;;;5.90;;
5937;SDS011;2994;51.220;4.412;2023-03-01T15:52:21;7.73;;;5.63;;
5937;SDS011;2994;51.220;4.412;2023-03-01T15:54:55;10.63;;;6.40;;
5937;SDS011;2994;51.220;4.412;2023-03-01T15:57:25;7.97;;;6.47;;
5937;SDS011;2994;51.220;4.412;2023-03-01T15:59:50;9.87;;;7.33;;
5937;SDS011;2994;51.220;4.412;2023-03-01T16:02:16;7.37;;;6.77;;
5937;SDS011;2994;51.220;4.412;2023-03-01T16:04:41;7.77;;;6.97;;
5937;SDS011;2994;51.220;4.412;2023-03-01T16:07:08;7.53;;;6.57;;
5937;SDS011;2994;51.220;4.412;2023-03-01T16:09:34;8.70;;;7.03;;
5937;SDS011;2994;51.220;4.412;2023-03-01T16:12:00;6.43;;;5.57;;
5937;SDS011;2994;51.220;4.412;2023-03-01T16:14:26;8.40;;;7.60;;
5937;SDS011;2994;51.220;4.412;2023-03-01T16:16:52;8.37;;;7.03;;
5937;SDS011;2994;51.220;4.412;2023-03-01T16:19:18;7.90;;;7.20;;
5937;SDS011;2994;51.220;4.412;2023-03-01T16:21:43;7.67;;;6.70;;
5937;SDS011;2994;51.220;4.412;2023-03-01T16:24:11;9.90;;;6.30;;
5937;SDS011;2994;51.220;4.412;2023-03-01T16:26:37;7.23;;;6.50;;
5937;SDS011;2994;51.220;4.412;2023-03-01T16:29:03;7.60;;;6.80;;
5937;SDS011;2994;51.220;4.412;2023-03-01T16:31:28;9.77;;;6.30;;
5937;SDS011;2994;51.220;4.412;2023-03-01T16:33:55;7.93;;;6.37;;
5937;SDS011;2994;51.220;4.412;2023-03-01T16:36:22;7.70;;;6.60;;
5937;SDS011;2994;51.220;4.412;2023-03-01T16:38:49;9.40;;;7.83;;
5937;SDS011;2994;51.220;4.412;2023-03-01T16:41:18;8.30;;;6.63;;
5937;SDS011;2994;51.220;4.412;2023-03-01T16:43:45;8.80;;;6.63;;
5937;SDS011;2994;51.220;4.412;2023-03-01T16:46:12;8.27;;;6.90;;
5937;SDS011;2994;51.220;4.412;2023-03-01T16:48:39;7.70;;;7.00;;
5937;SDS011;2994;51.220;4.412;2023-03-01T16:51:05;13.93;;;6.87;;
5937;SDS011;2994;51.220;4.412;2023-03-01T16:53:32;8.97;;;7.10;;
5937;SDS011;2994;51.220;4.412;2023-03-01T16:55:58;8.17;;;7.23;;
5937;SDS011;2994;51.220;4.412;2023-03-01T16:58:24;8.30;;;7.17;;
5937;SDS011;2994;51.220;4.412;2023-03-01T17:00:51;11.50;;;6.40;;
5937;SDS011;2994;51.220;4.412;2023-03-01T17:03:19;7.37;;;6.10;;
5937;SDS011;2994;51.220;4.412;2023-03-01T17:05:46;10.27;;;7.90;;
5937;SDS011;2994;51.220;4.412;2023-03-01T17:08:12;9.00;;;7.20;;
5937;SDS011;2994;51.220;4.412;2023-03-01T17:10:38;10.80;;;7.60;;
5937;SDS011;2994;51.220;4.412;2023-03-01T17:13:04;7.87;;;7.07;;
5937;SDS011;2994;51.220;4.412;2023-03-01T17:15:29;9.10;;;7.23;;
5937;SDS011;2994;51.220;4.412;2023-03-01T17:17:54;9.57;;;8.30;;
5937;SDS011;2994;51.220;4.412;2023-03-01T17:20:20;11.23;;;7.93;;
5937;SDS011;2994;51.220;4.412;2023-03-01T17:22:45;8.67;;;7.50;;